Main page
METAR-TAF:

METAR-TAF

Airports :

Curaçao International Airport

Curaçao, Netherlands Antilles

latitude: 12-12N, longitude: 068-58W, elevation: 9 m

Current weather observation

The report was made 22 minutes ago, at 21:00 UTC
Wind 11 kt from the East
Temperature 29°C
Humidity 74%
Pressure 1009 hPa
Visibility 10 km or more

METAR: TNCC 132100Z AUTO 10011KT 9999 NSC 29/24 Q1009 NOSIG

Time: 17:22 (21:22 UTC)

Forecast

The report was made 5 hours and 57 minutes ago, at 15:25 UTC
Forecast valid from 13 at 18 UTC to 14 at 18 UTC
Wind 13 kt from the East
Visibility 10 km or more
Scattered clouds at a height of 2000 ft
Temporary
from 13 at 18 UTC to 14 at 18 UTC
Broken clouds at a height of 1500 ft
Probability 40% :
Temporary
from 14 at 09 UTC to 14 at 17 UTC
Wind 20 kt from variable directions
Visibility: 4000 m
Scattered clouds at a height of 1200 ft, Cumulonimbus.

TAF: TNCC 131525Z 1318/1418 09013KT 9999 SCT020 TEMPO 1318/1418 BKN015 PROB40 TEMPO 1409/1417 VRB20KT 4000 SHRA/TSRA SCT012CB

Weather observations and forecasts of more than 4000 airports (METAR and TAF reports).

The available stations are represented by yellow and red dots on the map.

Hover mouse over dot to see the name of the station.

Then click to see weather observations and forecasts.

To change the map : click on the green buttons with a black cross to zoom in, on the green button with a dash to zoom out, or on the green arrows for adjacent maps.


METAR-TAF: